"WATCHING THE WEATHER TO PROTECT LIFE AND PROPERTY"


Aviation
Satellite (InfraRed)


TNCA 250400Z 10009KT 7000 FEW018 28/25 Q1010 NOSIG
TNCB 250355Z AUTO 09016KT 9999 FEW012/// 27/24 Q1010
TNCC 250400Z 11011KT 9999 SCT017 27/24 Q1011 NOSIG
TNCM 250400Z 11011KT 080V140 9999 SCT018 26/23 Q1014 A2996